Time;durP1;ratioP1;P1;durP2;ratioP2;P2;SDS_P1;SDS_P2;PMS_P1;PMS_P2;Temp;Humidity;BMP_temperature;BMP_pressure;BME280_temperature;BME280_humidity;BME280_pressure;Samples;Min_cycle;Max_cycle;Signal;HPM_P1;HPM_P2
2022/01/19 00:00:52;;;;;;;4.72;2.15;;;;;;;-3.83;93.60;100507.94;5033566;28;20028;-77
2022/01/19 00:03:18;;;;;;;3.60;1.50;;;;;;;-3.82;93.34;100494.34;5052357;28;20525;-77
2022/01/19 00:05:44;;;;;;;4.53;1.70;;;;;;;-3.79;93.33;100495.81;5052379;28;20099;-77
2022/01/19 00:08:11;;;;;;;4.43;1.42;;;;;;;-3.77;93.16;100488.41;5051599;28;20044;-77
2022/01/19 00:10:37;;;;;;;8.38;1.88;;;;;;;-3.75;93.05;100503.28;5052157;28;20124;-77
2022/01/19 00:13:03;;;;;;;5.85;1.75;;;;;;;-3.73;93.16;100508.47;5061099;28;20596;-78
2022/01/19 00:15:28;;;;;;;2.80;1.42;;;;;;;-3.71;92.67;100501.03;5032177;28;20036;-77
2022/01/19 00:17:57;;;;;;;4.97;1.45;;;;;;;-3.66;92.88;100501.28;5061162;28;20044;-77
2022/01/19 00:20:24;;;;;;;4.18;1.63;;;;;;;-3.65;92.69;100498.41;5051567;28;20091;-77
2022/01/19 00:22:50;;;;;;;3.20;1.58;;;;;;;-3.65;93.08;100494.91;5051974;28;20070;-77
2022/01/19 00:25:17;;;;;;;2.72;1.33;;;;;;;-3.63;93.25;100492.88;5016986;28;20396;-77
2022/01/19 00:27:42;;;;;;;4.13;1.60;;;;;;;-3.60;92.81;100495.19;5034622;28;20040;-77
2022/01/19 00:30:08;;;;;;;2.42;1.30;;;;;;;-3.58;93.14;100487.78;5043678;28;20037;-78
2022/01/19 00:32:34;;;;;;;2.25;1.50;;;;;;;-3.57;92.75;100492.09;5050741;28;20036;-77
2022/01/19 00:35:01;;;;;;;1.52;1.15;;;;;;;-3.54;93.12;100480.16;5052011;28;20052;-76
2022/01/19 00:37:27;;;;;;;5.28;1.60;;;;;;;-3.53;92.88;100476.47;5051877;28;20041;-77
2022/01/19 00:39:52;;;;;;;4.47;1.60;;;;;;;-3.51;92.94;100479.78;5056797;28;20037;-77
2022/01/19 00:42:18;;;;;;;2.90;1.15;;;;;;;-3.49;92.89;100465.13;5051713;28;20052;-77
2022/01/19 00:44:45;;;;;;;2.35;1.27;;;;;;;-3.47;93.05;100471.16;5051695;28;20044;-77
2022/01/19 00:47:10;;;;;;;4.22;1.45;;;;;;;-3.44;92.82;100468.09;5033766;28;20254;-77
2022/01/19 00:49:36;;;;;;;2.45;1.45;;;;;;;-3.42;93.01;100466.03;5034471;28;20123;-76
2022/01/19 00:52:02;;;;;;;4.50;1.40;;;;;;;-3.38;92.92;100459.25;5033943;28;20036;-77
2022/01/19 00:54:27;;;;;;;4.00;1.42;;;;;;;-3.33;92.78;100454.13;5055688;28;20603;-76
2022/01/19 00:56:53;;;;;;;3.90;1.40;;;;;;;-3.31;93.18;100439.69;5051314;28;20041;-77
2022/01/19 00:59:18;;;;;;;4.03;1.83;;;;;;;-3.30;93.04;100435.97;5051961;28;20041;-77
2022/01/19 01:01:44;;;;;;;2.75;1.20;;;;;;;-3.30;93.16;100430.59;5049773;28;20048;-77
2022/01/19 01:04:11;;;;;;;3.40;1.67;;;;;;;-3.30;93.15;100435.97;5050973;28;20380;-77
2022/01/19 01:06:36;;;;;;;1.60;1.40;;;;;;;-3.27;92.85;100432.94;5051174;28;20041;-78
2022/01/19 01:09:03;;;;;;;6.55;1.75;;;;;;;-3.24;93.52;100429.84;5053326;28;20410;-77
2022/01/19 01:11:32;;;;;;;3.50;1.58;;;;;;;-3.23;93.52;100420.78;5049027;28;20044;-78
2022/01/19 01:16:33;;;;;;;2.45;1.33;;;;;;;-3.17;93.22;100414.59;5051095;28;20033;-78
2022/01/19 01:19:00;;;;;;;4.60;1.45;;;;;;;-3.14;93.53;100419.56;5056377;28;20067;-78
2022/01/19 01:21:26;;;;;;;2.65;1.30;;;;;;;-3.13;93.29;100411.31;5016947;28;20044;-78
2022/01/19 01:23:51;;;;;;;5.10;1.80;;;;;;;-3.13;93.61;100414.00;5032995;28;20056;-78
2022/01/19 01:26:17;;;;;;;4.10;1.45;;;;;;;-3.10;93.36;100404.75;5032892;28;20037;-78
2022/01/19 01:28:43;;;;;;;2.30;1.23;;;;;;;-3.10;93.68;100389.47;5033186;28;20041;-77
2022/01/19 01:31:09;;;;;;;3.03;1.52;;;;;;;-3.07;93.45;100389.06;5049756;28;20442;-77
2022/01/19 01:33:38;;;;;;;2.40;1.17;;;;;;;-3.05;94.21;100388.88;5032707;28;20075;-77
2022/01/19 01:36:04;;;;;;;2.47;1.42;;;;;;;-3.04;93.86;100390.53;5033193;28;20033;-78
2022/01/19 01:38:29;;;;;;;1.90;1.33;;;;;;;-3.04;94.15;100377.09;5032806;28;20392;-78
2022/01/19 01:40:55;;;;;;;2.33;1.65;;;;;;;-3.01;94.02;100374.03;5049530;28;20179;-78
2022/01/19 01:43:21;;;;;;;2.63;1.33;;;;;;;-2.97;94.10;100377.97;5032634;28;20044;-78
2022/01/19 01:45:51;;;;;;;2.72;1.55;;;;;;;-2.95;94.39;100370.56;5033069;28;20037;-78
2022/01/19 01:48:20;;;;;;;2.40;1.33;;;;;;;-2.91;94.70;100365.63;5049154;28;20040;-78
2022/01/19 01:53:52;;;;;;;4.47;1.65;;;;;;;-2.86;95.05;100366.66;5066478;28;20124;-78
2022/01/19 01:56:18;;;;;;;5.10;1.45;;;;;;;-2.84;95.44;100367.28;5032766;28;20041;-78
2022/01/19 01:58:48;;;;;;;4.43;1.50;;;;;;;-2.82;95.14;100375.13;5032892;28;20076;-77
2022/01/19 02:01:34;;;;;;;2.30;1.42;;;;;;;-2.78;95.51;100369.19;5050413;28;20045;-78
2022/01/19 02:04:07;;;;;;;2.88;1.50;;;;;;;-2.74;95.56;100367.75;5015874;28;20040;-78
2022/01/19 02:06:41;;;;;;;1.95;1.75;;;;;;;-2.69;96.03;100363.63;5046186;28;20071;-77
2022/01/19 02:09:30;;;;;;;2.03;1.20;;;;;;;-2.66;96.45;100347.09;5031946;28;20036;-78
2022/01/19 02:22:52;;;;;;;6.18;1.48;;;;;;;-2.44;97.40;100324.41;5050171;28;20080;-76
2022/01/19 02:25:21;;;;;;;1.98;1.40;;;;;;;-2.36;97.36;100315.34;5036784;28;20411;-76
2022/01/19 02:31:35;;;;;;;2.38;1.50;;;;;;;-2.28;97.83;100310.59;5051415;28;20075;-78
2022/01/19 02:41:38;;;;;;;3.67;1.60;;;;;;;-2.07;98.79;100306.06;5054123;28;20052;-77
2022/01/19 02:44:04;;;;;;;2.60;1.42;;;;;;;-2.03;98.11;100310.00;5069326;28;20594;-77
2022/01/19 02:46:40;;;;;;;3.30;1.67;;;;;;;-2.02;98.48;100314.34;5036329;28;20037;-77
2022/01/19 02:49:20;;;;;;;3.50;1.60;;;;;;;-1.97;98.24;100309.16;5054451;28;20091;-77
2022/01/19 02:51:49;;;;;;;6.85;1.88;;;;;;;-1.93;98.16;100310.38;5035987;28;20032;-77
2022/01/19 02:54:20;;;;;;;2.13;1.38;;;;;;;-1.89;98.16;100298.22;5036039;28;20419;-77
2022/01/19 02:56:51;;;;;;;5.20;1.60;;;;;;;-1.88;98.28;100289.09;5052899;28;20040;-77
2022/01/19 03:09:45;;;;;;;3.63;1.70;;;;;;;-1.76;98.18;100292.78;5052296;28;20041;-76
2022/01/19 03:12:13;;;;;;;5.32;1.70;;;;;;;-1.75;98.42;100291.75;5052279;28;20565;-77
2022/01/19 03:14:40;;;;;;;3.08;1.48;;;;;;;-1.72;98.70;100293.22;5052619;28;20073;-77
2022/01/19 03:17:06;;;;;;;4.03;1.67;;;;;;;-1.69;98.21;100290.94;5073633;28;20044;-77
2022/01/19 03:19:33;;;;;;;3.80;1.40;;;;;;;-1.70;98.79;100309.97;5057158;28;20044;-76
2022/01/19 03:21:59;;;;;;;3.55;1.25;;;;;;;-1.69;98.47;100301.69;5052788;28;20112;-77
2022/01/19 03:24:25;;;;;;;2.65;1.50;;;;;;;-1.67;98.71;100294.25;5052293;28;20033;-78
2022/01/19 03:26:51;;;;;;;2.78;1.48;;;;;;;-1.65;98.65;100286.78;5035816;28;20048;-77
2022/01/19 03:29:37;;;;;;;3.83;1.60;;;;;;;-1.63;98.67;100281.19;5038518;28;20048;-77
2022/01/19 03:32:03;;;;;;;2.05;1.40;;;;;;;-1.62;98.59;100275.59;5035657;28;20522;-77
2022/01/19 03:34:29;;;;;;;2.05;1.20;;;;;;;-1.61;98.72;100260.28;5051411;28;20045;-79
2022/01/19 03:37:00;;;;;;;2.10;1.20;;;;;;;-1.61;98.80;100250.34;5036111;28;20044;-77
2022/01/19 03:39:25;;;;;;;3.17;1.30;;;;;;;-1.60;98.44;100246.63;5037549;28;20033;-78
2022/01/19 03:41:51;;;;;;;2.67;1.17;;;;;;;-1.60;98.76;100232.34;5060937;28;20099;-78
2022/01/19 03:44:16;;;;;;;4.43;1.45;;;;;;;-1.58;98.59;100233.78;5051835;28;20068;-78
2022/01/19 03:46:54;;;;;;;5.25;1.35;;;;;;;-1.59;98.72;100232.13;5032600;28;20033;-78
2022/01/19 03:49:24;;;;;;;2.75;1.67;;;;;;;-1.58;98.78;100216.81;5033861;28;20163;-78
2022/01/19 03:51:52;;;;;;;4.05;1.48;;;;;;;-1.57;98.74;100200.44;5034640;28;20411;-77
2022/01/19 03:54:18;;;;;;;1.83;1.20;;;;;;;-1.54;98.73;100197.38;5051893;28;20064;-77
2022/01/19 03:57:06;;;;;;;2.78;1.48;;;;;;;-1.50;98.82;100196.94;5038214;28;20128;-77
2022/01/19 03:59:32;;;;;;;2.47;1.23;;;;;;;-1.53;98.68;100177.50;5034834;28;20029;-78
2022/01/19 04:01:58;;;;;;;2.33;1.50;;;;;;;-1.52;99.08;100168.38;5050040;28;20040;-78
2022/01/19 04:06:55;;;;;;;2.70;1.48;;;;;;;-1.49;98.79;100175.19;5050895;28;20040;-78
2022/01/19 04:09:22;;;;;;;2.13;1.40;;;;;;;-1.48;98.99;100159.88;5043471;28;20503;-79
2022/01/19 04:11:48;;;;;;;2.72;1.35;;;;;;;-1.46;99.17;100157.78;5051243;28;20033;-79
2022/01/19 04:14:23;;;;;;;4.93;2.10;;;;;;;-1.46;98.90;100155.91;5054383;28;20128;-82
2022/01/19 04:17:00;;;;;;;3.83;1.83;;;;;;;-1.43;99.23;100139.34;5067824;28;20043;-80
2022/01/19 04:19:41;;;;;;;4.80;1.70;;;;;;;-1.42;99.16;100137.47;5046737;28;20043;-82
2022/01/19 04:22:19;;;;;;;3.78;1.83;;;;;;;-1.42;98.90;100130.22;5027831;28;20615;-79
2022/01/19 04:24:47;;;;;;;2.72;1.65;;;;;;;-1.42;98.97;100124.03;5048569;28;20105;-78
2022/01/19 04:30:11;;;;;;;2.58;1.70;;;;;;;-1.42;98.92;100129.41;5069098;28;20497;-80
2022/01/19 04:35:31;;;;;;;3.97;1.45;;;;;;;-1.43;98.84;100128.56;5050721;28;20048;-78
2022/01/19 04:49:12;;;;;;;3.60;1.65;;;;;;;-1.36;99.08;100132.06;5047159;28;20037;-77
2022/01/19 05:06:00;;;;;;;2.00;1.73;;;;;;;-1.33;98.76;100117.34;5040775;28;20060;-77
2022/01/19 05:13:39;;;;;;;3.13;1.60;;;;;;;-1.28;98.57;100120.22;5049110;28;20045;-77
2022/01/19 05:16:05;;;;;;;6.10;1.58;;;;;;;-1.26;98.73;100123.50;5019444;28;20041;-78
2022/01/19 05:18:32;;;;;;;6.60;1.88;;;;;;;-1.27;98.58;100116.47;5054990;28;20045;-77
2022/01/19 05:20:58;;;;;;;4.78;1.77;;;;;;;-1.27;98.61;100111.09;5045556;28;20048;-77
2022/01/19 05:23:52;;;;;;;3.75;1.83;;;;;;;-1.25;98.53;100109.84;5016620;28;20069;-77
2022/01/19 05:26:18;;;;;;;4.05;1.60;;;;;;;-1.22;98.11;100112.09;5074604;28;20032;-77
2022/01/19 05:28:45;;;;;;;5.72;1.98;;;;;;;-1.20;98.33;100109.22;5051967;28;20041;-76
2022/01/19 05:31:11;;;;;;;3.15;1.75;;;;;;;-1.19;98.91;100116.25;5056017;28;20043;-76
2022/01/19 05:33:36;;;;;;;4.93;2.30;;;;;;;-1.17;98.40;100111.47;5034705;28;20041;-78
2022/01/19 05:36:03;;;;;;;3.47;1.65;;;;;;;-1.17;98.40;100106.06;5033280;28;20415;-78
2022/01/19 05:38:48;;;;;;;3.83;1.40;;;;;;;-1.15;98.31;100112.06;5051144;28;20067;-78
2022/01/19 05:41:21;;;;;;;4.80;1.33;;;;;;;-1.14;98.71;100108.31;5048998;28;20502;-78
2022/01/19 05:43:48;;;;;;;3.85;1.50;;;;;;;-1.12;98.74;100106.22;5049725;28;20049;-78
2022/01/19 05:46:14;;;;;;;4.55;1.70;;;;;;;-1.07;98.47;100100.19;5065995;28;20059;-78
2022/01/19 05:48:41;;;;;;;3.95;1.70;;;;;;;-1.06;98.43;100091.88;5066140;28;20495;-77
2022/01/19 05:51:07;;;;;;;5.35;1.55;;;;;;;-1.05;98.25;100096.22;5032981;28;20033;-78
2022/01/19 05:53:32;;;;;;;3.08;1.40;;;;;;;-1.02;98.19;100087.75;5016753;28;20072;-78
2022/01/19 05:56:00;;;;;;;5.07;1.77;;;;;;;-1.01;98.27;100094.78;5033216;28;20036;-78
2022/01/19 05:58:28;;;;;;;3.30;1.42;;;;;;;-0.99;98.06;100095.38;5049488;28;20037;-77
2022/01/19 06:00:57;;;;;;;4.20;1.83;;;;;;;-0.98;98.04;100097.03;5030302;28;20179;-76
2022/01/19 06:03:23;;;;;;;5.40;1.70;;;;;;;-0.97;98.49;100081.69;5064214;28;20040;-78
2022/01/19 06:06:12;;;;;;;5.03;1.73;;;;;;;-0.96;98.21;100086.84;5050356;28;20048;-78
2022/01/19 06:09:00;;;;;;;2.97;1.70;;;;;;;-0.95;98.23;100093.88;5049596;28;20133;-77
2022/01/19 06:11:26;;;;;;;7.00;1.60;;;;;;;-0.94;97.97;100086.63;5049274;28;20411;-78
2022/01/19 06:13:52;;;;;;;4.72;2.05;;;;;;;-0.95;97.83;100083.13;5032902;28;20510;-77
2022/01/19 06:16:18;;;;;;;5.50;1.45;;;;;;;-0.95;97.81;100077.72;5032844;28;20166;-78
2022/01/19 06:18:44;;;;;;;3.67;1.63;;;;;;;-0.92;98.19;100079.97;5049079;28;20655;-80
2022/01/19 06:21:10;;;;;;;5.95;1.67;;;;;;;-0.91;97.79;100087.00;5066284;28;20041;-78
2022/01/19 06:23:39;;;;;;;4.30;1.90;;;;;;;-0.89;97.82;100080.56;5049024;28;20507;-77
2022/01/19 06:26:07;;;;;;;4.78;1.88;;;;;;;-0.90;97.94;100085.13;5049416;28;20040;-79
2022/01/19 06:28:35;;;;;;;4.90;1.60;;;;;;;-0.90;97.94;100079.75;5049265;28;20041;-78
2022/01/19 06:31:00;;;;;;;5.55;1.63;;;;;;;-0.86;97.81;100072.09;5049224;28;20102;-78
2022/01/19 06:33:26;;;;;;;5.40;1.90;;;;;;;-0.84;97.86;100073.50;5049136;28;20060;-78
2022/01/19 06:35:53;;;;;;;4.60;2.00;;;;;;;-0.83;97.52;100074.31;5033336;28;20037;-79
2022/01/19 06:38:37;;;;;;;3.20;1.38;;;;;;;-0.78;97.59;100061.00;5050603;28;20036;-77
2022/01/19 06:41:05;;;;;;;2.90;1.58;;;;;;;-0.77;97.90;100059.97;5032777;28;20572;-77
2022/01/19 06:43:32;;;;;;;4.10;1.65;;;;;;;-0.76;97.37;100061.63;5032226;28;20147;-77
2022/01/19 06:46:00;;;;;;;2.80;1.15;;;;;;;-0.77;97.54;100047.31;5032465;28;20171;-77
2022/01/19 06:48:26;;;;;;;2.80;1.20;;;;;;;-0.77;97.61;100047.31;5016025;28;20132;-77
2022/01/19 06:50:52;;;;;;;5.28;1.60;;;;;;;-0.77;97.58;100043.81;5048850;28;20123;-77
2022/01/19 06:53:24;;;;;;;5.45;2.05;;;;;;;-0.78;97.37;100042.16;5048804;28;20039;-77
2022/01/19 06:56:03;;;;;;;7.35;2.00;;;;;;;-0.79;97.73;100048.59;5034416;28;20040;-78
2022/01/19 06:58:29;;;;;;;7.38;1.83;;;;;;;-0.80;97.34;100044.25;5048904;28;20183;-77
2022/01/19 07:01:14;;;;;;;7.82;2.15;;;;;;;-0.81;97.64;100034.53;5048765;28;20044;-77
2022/01/19 07:04:02;;;;;;;4.07;1.75;;;;;;;-0.81;97.34;100048.00;5049864;28;20044;-78
2022/01/19 07:06:29;;;;;;;7.75;2.13;;;;;;;-0.83;97.45;100063.56;5015974;28;20045;-78
2022/01/19 07:09:24;;;;;;;5.72;1.50;;;;;;;-0.83;97.23;100053.59;5038158;28;20053;-78
2022/01/19 07:11:52;;;;;;;2.75;1.60;;;;;;;-0.83;97.49;100048.22;5068107;28;20165;-79
2022/01/19 07:14:17;;;;;;;4.13;2.30;;;;;;;-0.82;97.15;100051.75;5068191;28;20503;-77
2022/01/19 07:16:44;;;;;;;6.00;2.03;;;;;;;-0.81;97.54;100050.69;5068919;28;20040;-78
2022/01/19 07:19:13;;;;;;;3.63;2.15;;;;;;;-0.80;97.45;100045.06;5053532;28;20049;-77
2022/01/19 07:21:40;;;;;;;4.68;1.80;;;;;;;-0.80;97.65;100038.88;5035818;28;20076;-78
2022/01/19 07:24:06;;;;;;;5.53;1.90;;;;;;;-0.78;97.55;100036.78;5035295;28;20077;-78
2022/01/19 07:26:32;;;;;;;2.38;1.90;;;;;;;-0.78;97.32;100028.69;5035398;28;20036;-79
2022/01/19 07:28:59;;;;;;;3.45;1.50;;;;;;;-0.77;97.47;100022.25;5035847;28;20040;-76
2022/01/19 07:31:25;;;;;;;4.25;1.75;;;;;;;-0.78;97.61;100024.13;5051932;28;20037;-76
2022/01/19 07:33:56;;;;;;;8.80;2.88;;;;;;;-0.77;97.20;100014.19;5035194;28;20051;-76
2022/01/19 07:36:23;;;;;;;6.57;2.13;;;;;;;-0.75;97.57;100006.69;5026431;28;20034;-76
2022/01/19 07:38:48;;;;;;;6.45;2.30;;;;;;;-0.74;97.13;99997.56;5031996;28;20041;-76
2022/01/19 07:41:15;;;;;;;3.40;1.77;;;;;;;-0.74;97.52;100000.25;5067715;28;20041;-77
2022/01/19 07:43:46;;;;;;;6.43;2.30;;;;;;;-0.74;97.13;99986.78;5051076;28;20040;-77
2022/01/19 07:46:30;;;;;;;6.05;1.95;;;;;;;-0.75;97.33;99980.56;5052565;28;20140;-77
2022/01/19 07:49:10;;;;;;;5.05;2.00;;;;;;;-0.76;97.27;99980.81;5051635;28;20091;-81
2022/01/19 07:51:55;;;;;;;4.35;1.70;;;;;;;-0.75;97.54;99974.38;5051679;28;20056;-80
2022/01/19 07:54:25;;;;;;;4.65;2.20;;;;;;;-0.77;96.96;99973.78;5035150;28;20423;-81
2022/01/19 07:57:08;;;;;;;6.63;2.35;;;;;;;-0.78;97.23;99978.34;5052230;28;20036;-80
2022/01/19 07:59:46;;;;;;;5.72;2.15;;;;;;;-0.78;97.32;99982.91;5035170;28;20040;-80
2022/01/19 08:02:13;;;;;;;8.65;2.47;;;;;;;-0.77;97.15;99984.53;5051770;28;20080;-80
2022/01/19 08:05:02;;;;;;;4.50;2.38;;;;;;;-0.75;97.26;99985.13;5051588;28;20037;-81
2022/01/19 08:07:31;;;;;;;6.40;2.45;;;;;;;-0.75;97.11;99968.97;5018366;28;20131;-81
2022/01/19 08:09:59;;;;;;;;;;;;;;;-0.77;97.18;99961.13;5035318;28;20067;-81
2022/01/19 08:12:26;;;;;;;5.45;2.55;;;;;;;-0.75;97.35;99968.97;5034886;28;20058;-80
2022/01/19 08:14:51;;;;;;;6.68;2.50;;;;;;;-0.74;97.33;99944.50;5051105;28;20041;-78
2022/01/19 08:17:26;;;;;;;4.95;2.47;;;;;;;-0.72;97.02;99946.97;5033211;28;20063;-78
2022/01/19 08:19:56;;;;;;;4.03;2.75;;;;;;;-0.75;96.98;99944.72;5065266;28;20423;-78
2022/01/19 08:22:22;;;;;;;;;;;;;;;-0.74;96.86;99944.50;5054088;28;20045;-78
2022/01/19 08:25:17;;;;;;;3.95;2.22;;;;;;;-0.72;96.75;99941.59;5035672;28;19921;-77
2022/01/19 08:27:42;;;;;;;6.32;2.63;;;;;;;-0.72;96.92;99937.03;5033533;28;20569;-78
2022/01/19 08:30:11;;;;;;;7.18;3.03;;;;;;;-0.72;96.73;99928.94;5050506;28;20045;-78
2022/01/19 08:32:43;;;;;;;6.80;3.42;;;;;;;-0.70;96.49;99934.91;5034418;28;20045;-79
2022/01/19 08:35:12;;;;;;;5.03;2.53;;;;;;;-0.69;96.24;99923.13;5051819;28;20491;-78
2022/01/19 08:38:00;;;;;;;3.63;2.10;;;;;;;-0.66;96.40;99933.44;5027290;28;20054;-78
2022/01/19 08:40:30;;;;;;;5.82;1.90;;;;;;;-0.63;96.22;99921.38;5030424;28;20034;-78
2022/01/19 08:43:19;;;;;;;6.25;2.30;;;;;;;-0.61;96.50;99905.81;5047394;28;20046;-78
2022/01/19 08:45:45;;;;;;;8.27;2.30;;;;;;;-0.61;96.30;99906.63;5047349;28;20102;-78
2022/01/19 08:48:13;;;;;;;7.18;2.17;;;;;;;-0.58;95.92;99905.38;5047032;28;20642;-79
2022/01/19 08:50:51;;;;;;;5.22;2.53;;;;;;;-0.56;95.89;99908.66;5030696;28;20057;-78
2022/01/19 08:53:49;;;;;;;4.47;1.98;;;;;;;-0.55;95.99;99904.91;5022767;28;20504;-78
2022/01/19 08:56:32;;;;;;;5.10;2.25;;;;;;;-0.56;95.71;99897.06;5047106;28;20063;-78
2022/01/19 08:58:58;;;;;;;5.43;2.05;;;;;;;-0.58;95.70;99896.47;5030602;28;20152;-78
2022/01/19 09:01:24;;;;;;;8.73;2.67;;;;;;;-0.57;95.75;99893.53;5031507;28;20054;-79
2022/01/19 09:03:50;;;;;;;7.97;2.10;;;;;;;-0.56;95.44;99894.34;5031361;28;20048;-79
2022/01/19 09:06:15;;;;;;;6.45;2.25;;;;;;;-0.56;95.27;99892.47;5035513;28;20067;-78
2022/01/19 09:08:41;;;;;;;4.13;2.08;;;;;;;-0.52;95.59;99882.06;5031781;28;20527;-78
2022/01/19 09:11:08;;;;;;;5.75;2.38;;;;;;;-0.51;95.62;99879.16;5046931;28;20396;-79
2022/01/19 09:13:34;;;;;;;3.20;2.03;;;;;;;-0.50;95.40;99875.44;5031368;28;20397;-79
2022/01/19 09:16:00;;;;;;;5.03;1.77;;;;;;;-0.45;95.24;99869.34;5031784;28;20539;-78
2022/01/19 09:18:26;;;;;;;4.85;2.20;;;;;;;-0.42;95.05;99866.19;5013669;28;20066;-79
2022/01/19 09:20:51;;;;;;;5.10;2.08;;;;;;;-0.39;95.23;99868.41;5031495;28;20037;-79
2022/01/19 09:23:17;;;;;;;4.75;2.03;;;;;;;-0.39;95.19;99871.94;5029976;28;20053;-78
2022/01/19 09:25:43;;;;;;;4.35;2.30;;;;;;;-0.35;94.80;99880.38;5016806;28;20519;-80
2022/01/19 09:28:09;;;;;;;7.00;2.95;;;;;;;-0.34;94.77;99879.38;5031409;28;20044;-80
2022/01/19 09:30:36;;;;;;;3.88;2.35;;;;;;;-0.35;94.75;99875.00;5031341;28;20124;-80
2022/01/19 09:33:19;;;;;;;5.70;2.55;;;;;;;-0.34;94.71;99866.72;5031070;28;20041;-79
2022/01/19 09:36:17;;;;;;;7.90;2.33;;;;;;;-0.33;94.58;99860.25;5031029;28;20404;-79
2022/01/19 09:38:37;;;;;;;5.13;2.42;;;;;;;-0.31;95.17;99843.84;5029676;28;20061;-79
2022/01/19 09:41:06;;;;;;;6.00;2.97;;;;;;;-0.29;94.70;99830.16;5031763;28;20047;-79
2022/01/19 09:43:32;;;;;;;7.65;2.10;;;;;;;-0.27;94.79;99814.56;5020747;28;20538;-80
2022/01/19 09:45:59;;;;;;;6.80;2.80;;;;;;;-0.29;94.56;99816.66;5013395;28;20065;-79
2022/01/19 09:48:25;;;;;;;4.38;2.40;;;;;;;-0.32;94.80;99826.03;5037153;28;20028;-80
2022/01/19 09:50:51;;;;;;;5.15;2.80;;;;;;;-0.34;94.76;99847.84;5050785;28;20174;-78
2022/01/19 09:53:17;;;;;;;6.10;2.72;;;;;;;-0.36;94.64;99859.88;5051177;28;20598;-79
2022/01/19 09:55:45;;;;;;;5.38;3.03;;;;;;;-0.36;94.54;99841.81;5050711;28;20037;-79
2022/01/19 09:58:10;;;;;;;6.93;2.80;;;;;;;-0.35;94.42;99839.94;5046277;28;20132;-79
2022/01/19 10:00:36;;;;;;;5.53;2.22;;;;;;;-0.36;94.23;99828.34;5050674;28;20777;-79
2022/01/19 10:03:17;;;;;;;3.97;2.42;;;;;;;-0.36;94.20;99831.03;5050675;28;20044;-79
2022/01/19 10:05:56;;;;;;;5.65;2.80;;;;;;;-0.32;94.55;99839.53;5050716;28;20183;-78
2022/01/19 10:08:35;;;;;;;8.10;2.20;;;;;;;-0.31;94.45;99836.59;5050833;28;20037;-79
2022/01/19 10:17:02;;;;;;;6.80;2.97;;;;;;;-0.27;94.54;99844.22;5050791;28;20045;-79
2022/01/19 10:19:34;;;;;;;5.00;2.78;;;;;;;-0.24;94.31;99830.28;5050812;28;20045;-79
2022/01/19 10:22:03;;;;;;;6.93;3.50;;;;;;;-0.25;94.37;99817.84;5042482;28;20136;-79
2022/01/19 10:24:37;;;;;;;6.82;3.60;;;;;;;-0.25;93.99;99807.06;5030519;28;20041;-80
2022/01/19 10:27:22;;;;;;;6.85;3.85;;;;;;;-0.24;94.29;99814.09;5030856;28;20045;-78
2022/01/19 10:30:13;;;;;;;9.55;3.30;;;;;;;-0.25;93.93;99809.75;5030582;28;20092;-79
2022/01/19 10:32:41;;;;;;;12.00;4.18;;;;;;;-0.25;93.82;99801.66;5030464;28;20033;-79
2022/01/19 10:35:23;;;;;;;9.30;3.08;;;;;;;-0.23;93.52;99799.56;5031024;28;20041;-80
2022/01/19 10:38:16;;;;;;;12.40;4.65;;;;;;;-0.23;93.57;99794.16;5030682;28;20489;-79
2022/01/19 10:40:57;;;;;;;10.32;5.05;;;;;;;-0.24;94.05;99787.13;5033569;28;20037;-79
2022/01/19 10:43:27;;;;;;;10.48;4.85;;;;;;;-0.25;93.71;99797.09;5030913;28;20053;-79
2022/01/19 10:45:54;;;;;;;12.07;4.25;;;;;;;-0.29;93.47;99792.41;5034374;28;20034;-79
2022/01/19 10:48:35;;;;;;;12.88;4.57;;;;;;;-0.32;93.40;99791.81;5033175;28;20041;-80
2022/01/19 10:51:16;;;;;;;10.57;4.82;;;;;;;-0.32;93.31;99785.59;5034349;28;20069;-79
2022/01/19 10:53:45;;;;;;;9.98;4.20;;;;;;;-0.33;93.33;99794.75;5034059;28;20412;-80
2022/01/19 10:56:28;;;;;;;11.05;5.68;;;;;;;-0.32;94.01;99786.44;5034539;28;20075;-79
2022/01/19 10:58:56;;;;;;;9.85;4.53;;;;;;;-0.31;93.82;99779.16;5037085;28;20037;-79
2022/01/19 11:01:46;;;;;;;7.35;3.65;;;;;;;-0.31;93.50;99777.28;5040927;28;20037;-79
2022/01/19 11:04:22;;;;;;;6.68;3.67;;;;;;;-0.29;94.05;99768.97;5051690;28;20128;-79
2022/01/19 11:06:49;;;;;;;4.90;3.35;;;;;;;-0.29;94.02;99765.44;5033045;28;20061;-78
2022/01/19 11:09:15;;;;;;;10.38;4.43;;;;;;;-0.31;94.00;99739.56;5047554;28;20033;-79
2022/01/19 11:11:43;;;;;;;4.53;3.10;;;;;;;-0.32;94.30;99731.69;5053734;28;20140;-79
2022/01/19 11:14:13;;;;;;;3.08;2.60;;;;;;;-0.31;94.38;99725.25;5053530;28;20044;-79
2022/01/19 11:16:40;;;;;;;4.78;2.85;;;;;;;-0.32;94.33;99729.00;5035175;28;20047;-79
2022/01/19 11:19:05;;;;;;;5.25;2.95;;;;;;;-0.36;94.23;99709.75;5053490;28;20124;-79
2022/01/19 11:21:37;;;;;;;3.38;2.10;;;;;;;-0.36;94.52;99704.38;5053139;28;20127;-79
2022/01/19 11:24:14;;;;;;;4.07;2.20;;;;;;;-0.39;94.44;99696.75;5013265;28;20053;-79
2022/01/19 11:26:40;;;;;;;5.40;2.25;;;;;;;-0.41;94.63;99692.66;5029017;28;20046;-79
2022/01/19 11:29:20;;;;;;;4.63;2.10;;;;;;;-0.41;94.75;99684.56;5013688;28;20037;-79
2022/01/19 11:31:48;;;;;;;3.40;2.17;;;;;;;-0.40;94.73;99696.97;5029070;28;20049;-79
2022/01/19 11:34:14;;;;;;;4.57;2.40;;;;;;;-0.42;94.68;99686.44;5013731;28;20057;-78
2022/01/19 11:36:42;;;;;;;4.90;1.95;;;;;;;-0.41;95.11;99695.34;5012751;28;20070;-80
2022/01/19 11:39:23;;;;;;;2.97;2.33;;;;;;;-0.43;94.96;99700.16;5029162;28;20046;-77
2022/01/19 11:41:50;;;;;;;2.35;1.67;;;;;;;-0.43;95.14;99692.06;5028623;28;20071;-79
2022/01/19 11:44:28;;;;;;;5.40;2.53;;;;;;;-0.43;95.35;99683.97;5013567;28;20046;-79
2022/01/19 11:46:56;;;;;;;6.00;2.65;;;;;;;-0.42;94.86;99669.44;5028774;28;20046;-79
2022/01/19 11:49:43;;;;;;;2.33;2.10;;;;;;;-0.40;95.33;99668.16;5013545;28;20575;-79
2022/01/19 11:52:08;;;;;;;4.78;2.38;;;;;;;-0.40;95.25;99648.47;5013281;28;20133;-78
2022/01/19 11:54:34;;;;;;;4.97;2.53;;;;;;;-0.39;94.95;99645.53;5000534;28;20126;-79
2022/01/19 11:57:04;;;;;;;4.85;2.35;;;;;;;-0.38;95.13;99657.97;4993841;28;20493;-78
2022/01/19 11:59:36;;;;;;;3.38;1.83;;;;;;;-0.39;95.26;99653.63;4993456;28;20097;-79
2022/01/19 12:02:20;;;;;;;2.40;1.73;;;;;;;-0.41;95.13;99636.06;4993750;28;20048;-78
2022/01/19 12:04:47;;;;;;;3.05;2.03;;;;;;;-0.42;95.57;99629.03;4993406;28;20046;-79
2022/01/19 12:07:35;;;;;;;4.82;2.35;;;;;;;-0.42;95.33;99632.53;5025328;28;20042;-79
2022/01/19 12:10:01;;;;;;;4.07;1.90;;;;;;;-0.42;95.39;99635.22;5024850;28;20089;-78
2022/01/19 12:12:32;;;;;;;5.10;2.13;;;;;;;-0.43;95.58;99616.59;4993326;28;20034;-77
2022/01/19 12:14:57;;;;;;;3.58;2.35;;;;;;;-0.43;95.75;99619.31;4993514;28;20073;-79
2022/01/19 12:17:53;;;;;;;6.78;2.30;;;;;;;-0.42;95.51;99615.56;4993252;28;20533;-78
2022/01/19 12:20:47;;;;;;;6.25;2.28;;;;;;;-0.43;95.80;99601.25;4991949;28;20547;-78
2022/01/19 12:23:42;;;;;;;4.65;1.83;;;;;;;-0.45;96.24;99587.19;5016331;28;20041;-77
2022/01/19 12:26:10;;;;;;;5.53;2.50;;;;;;;-0.46;95.77;99576.66;5038971;28;20136;-77
2022/01/19 12:28:52;;;;;;;4.65;2.10;;;;;;;-0.47;96.35;99562.38;5051748;28;20098;-78
2022/01/19 12:31:35;;;;;;;4.30;2.47;;;;;;;-0.45;96.13;99565.63;5052077;28;20676;-77
2022/01/19 12:34:07;;;;;;;2.50;1.75;;;;;;;-0.45;96.55;99554.03;5050129;28;20326;-77
2022/01/19 12:36:50;;;;;;;2.50;1.67;;;;;;;-0.45;95.85;99549.47;5050569;28;20036;-79
2022/01/19 12:39:28;;;;;;;4.00;2.33;;;;;;;-0.44;96.68;99540.31;5051507;28;20044;-78
2022/01/19 12:42:00;;;;;;;5.03;2.25;;;;;;;-0.43;96.60;99550.06;5052091;28;20033;-76
2022/01/19 12:44:35;;;;;;;4.35;2.08;;;;;;;-0.44;96.77;99534.13;5052897;28;20063;-75
2022/01/19 12:47:05;;;;;;;5.47;2.00;;;;;;;-0.45;96.31;99533.31;5053669;28;20037;-76
2022/01/19 12:49:31;;;;;;;3.55;2.10;;;;;;;-0.44;97.02;99534.13;5051492;28;20118;-75
2022/01/19 12:51:57;;;;;;;4.07;2.30;;;;;;;-0.44;96.70;99529.53;5051693;28;20519;-76
2022/01/19 12:54:28;;;;;;;5.82;2.00;;;;;;;-0.42;96.78;99527.44;5051564;28;20041;-76
2022/01/19 12:57:03;;;;;;;4.70;2.20;;;;;;;-0.41;97.06;99517.47;5049424;28;20152;-76
2022/01/19 12:59:30;;;;;;;5.55;2.45;;;;;;;-0.42;96.62;99505.06;5047278;28;20098;-78
2022/01/19 13:01:56;;;;;;;3.53;2.10;;;;;;;-0.43;97.08;99498.84;5048515;28;20051;-77
2022/01/19 13:04:24;;;;;;;3.92;2.55;;;;;;;-0.41;96.95;99487.81;5051070;28;20063;-75
2022/01/19 13:06:50;;;;;;;6.40;2.20;;;;;;;-0.40;97.23;99484.91;5050708;28;20064;-77
2022/01/19 13:09:29;;;;;;;4.35;2.03;;;;;;;-0.40;97.15;99474.13;5051571;28;20048;-77